createdAt,value
2016-08-11T00:00:56.265Z,0
2016-08-11T00:01:56.279Z,0
2016-08-11T00:02:56.313Z,0
2016-08-11T00:03:56.313Z,0
2016-08-11T00:04:56.308Z,0
2016-08-11T00:05:56.323Z,0
2016-08-11T00:06:56.313Z,0
2016-08-11T00:07:56.329Z,0
2016-08-11T00:08:56.347Z,0
2016-08-11T00:09:56.350Z,0
2016-08-11T00:10:56.351Z,0
2016-08-11T00:11:56.369Z,0
2016-08-11T00:12:56.379Z,0
2016-08-11T00:13:56.361Z,0
2016-08-11T00:14:56.384Z,0
2016-08-11T00:15:56.380Z,0
2016-08-11T00:16:57.063Z,0
2016-08-11T00:17:56.400Z,0
2016-08-11T00:18:56.407Z,0
2016-08-11T00:19:56.426Z,0
2016-08-11T00:20:56.424Z,0
2016-08-11T00:21:56.479Z,0
2016-08-11T00:22:56.451Z,0
2016-08-11T00:23:56.451Z,0
2016-08-11T00:24:56.489Z,0
2016-08-11T00:25:56.491Z,0
2016-08-11T00:26:56.464Z,0
2016-08-11T00:27:56.481Z,0
2016-08-11T00:28:56.510Z,0
2016-08-11T00:29:56.525Z,0
2016-08-11T00:30:56.491Z,0
2016-08-11T00:31:56.520Z,0
2016-08-11T00:32:56.517Z,0
2016-08-11T00:33:57.232Z,0
2016-08-11T00:34:56.534Z,0
2016-08-11T00:35:56.538Z,0
2016-08-11T00:36:56.535Z,0
2016-08-11T00:37:56.549Z,0
2016-08-11T00:38:56.573Z,0
2016-08-11T00:39:56.598Z,0
2016-08-11T00:40:56.562Z,0
2016-08-11T00:41:56.572Z,0
2016-08-11T00:42:56.587Z,0
2016-08-11T00:43:56.580Z,0
2016-08-11T00:44:56.613Z,0
2016-08-11T00:45:56.628Z,0
2016-08-11T00:46:56.617Z,0
2016-08-11T00:47:56.642Z,0
2016-08-11T00:48:56.648Z,0
2016-08-11T00:49:56.678Z,0
2016-08-11T00:50:56.650Z,0
2016-08-11T00:51:56.652Z,0
2016-08-11T00:52:56.685Z,0
2016-08-11T00:53:56.667Z,0
2016-08-11T00:54:56.687Z,0
2016-08-11T00:55:56.700Z,0
2016-08-11T00:56:56.713Z,0
2016-08-11T00:57:56.706Z,0
2016-08-11T00:58:56.745Z,0
2016-08-11T00:59:57.407Z,0
2016-08-11T01:00:56.723Z,0
2016-08-11T01:01:56.786Z,0
2016-08-11T01:02:56.762Z,0
2016-08-11T01:03:56.735Z,0
2016-08-11T01:04:56.755Z,0
2016-08-11T01:05:56.780Z,0
2016-08-11T01:06:56.806Z,0
2016-08-11T01:07:56.774Z,0
2016-08-11T01:08:56.779Z,0
2016-08-11T01:09:56.814Z,0
2016-08-11T01:10:56.818Z,0
2016-08-11T01:11:56.809Z,0
2016-08-11T01:12:56.829Z,0
2016-08-11T01:13:56.835Z,0
2016-08-11T01:14:56.837Z,0
2016-08-11T01:15:56.855Z,0
2016-08-11T01:16:56.862Z,0
2016-08-11T01:17:56.839Z,0
2016-08-11T01:18:56.848Z,0
2016-08-11T01:19:56.904Z,0
2016-08-11T01:20:56.878Z,0
2016-08-11T01:21:57.004Z,0
2016-08-11T01:22:56.897Z,0
2016-08-11T01:23:56.894Z,0
2016-08-11T01:24:56.922Z,0
2016-08-11T01:25:56.949Z,0
2016-08-11T01:26:56.934Z,0
2016-08-11T01:27:56.951Z,0
2016-08-11T01:28:56.968Z,0
2016-08-11T01:29:56.954Z,0
2016-08-11T01:30:56.944Z,0
2016-08-11T01:31:56.941Z,0
2016-08-11T01:32:56.983Z,0
2016-08-11T01:33:57.017Z,0
2016-08-11T01:34:57.003Z,0
2016-08-11T01:35:57.002Z,0
2016-08-11T01:36:57.017Z,0
2016-08-11T01:37:57.003Z,0
2016-08-11T01:38:57.023Z,0
2016-08-11T01:39:57.041Z,0
2016-08-11T01:40:57.064Z,0
2016-08-11T01:41:57.038Z,0
2016-08-11T01:42:57.065Z,0
2016-08-11T01:43:57.054Z,0
2016-08-11T01:44:57.050Z,0
2016-08-11T01:45:57.059Z,0
2016-08-11T01:46:57.108Z,0
2016-08-11T01:47:57.117Z,0
2016-08-11T01:48:57.092Z,0
2016-08-11T01:49:57.110Z,0
2016-08-11T01:50:57.123Z,0
2016-08-11T01:51:57.120Z,0
2016-08-11T01:52:57.115Z,0
2016-08-11T01:53:57.152Z,0
2016-08-11T01:54:57.136Z,0
2016-08-11T01:55:57.157Z,0
2016-08-11T01:56:57.163Z,0
2016-08-11T01:57:57.183Z,0
2016-08-11T01:58:57.170Z,0
2016-08-11T01:59:57.199Z,0
2016-08-11T02:00:57.225Z,0
2016-08-11T02:01:57.194Z,0
2016-08-11T02:02:57.203Z,0
2016-08-11T02:03:57.201Z,0
2016-08-11T02:04:57.208Z,0
2016-08-11T02:05:57.246Z,0
2016-08-11T02:06:57.259Z,0
2016-08-11T02:07:57.247Z,0
2016-08-11T02:08:57.272Z,0
2016-08-11T02:09:57.274Z,0
2016-08-11T02:10:57.286Z,0
2016-08-11T02:11:57.295Z,0
2016-08-11T02:12:57.300Z,0
2016-08-11T02:13:57.327Z,0
2016-08-11T02:14:57.294Z,0
2016-08-11T02:15:57.307Z,0
2016-08-11T02:16:57.317Z,0
2016-08-11T02:17:57.324Z,0
2016-08-11T02:18:57.331Z,0
2016-08-11T02:19:57.337Z,0
2016-08-11T02:20:57.345Z,0
2016-08-11T02:21:57.399Z,0
2016-08-11T02:22:57.378Z,0
2016-08-11T02:23:57.383Z,0
2016-08-11T02:24:57.375Z,0
2016-08-11T02:25:57.380Z,0
2016-08-11T02:26:57.400Z,0
2016-08-11T02:27:57.393Z,0
2016-08-11T02:28:57.420Z,0
2016-08-11T02:29:57.404Z,0
2016-08-11T02:30:57.422Z,0
2016-08-11T02:31:57.408Z,0
2016-08-11T02:32:57.488Z,0
2016-08-11T02:33:57.439Z,0
2016-08-11T02:34:57.469Z,0
2016-08-11T02:35:57.481Z,0
2016-08-11T02:36:57.467Z,0
2016-08-11T02:37:57.482Z,0
2016-08-11T02:38:57.511Z,0
2016-08-11T02:39:57.516Z,0
2016-08-11T02:40:58.209Z,0
2016-08-11T02:41:57.535Z,0
2016-08-11T02:42:57.524Z,0
2016-08-11T02:43:57.518Z,0
2016-08-11T02:44:57.525Z,0
2016-08-11T02:45:57.553Z,0
2016-08-11T02:46:57.580Z,0
2016-08-11T02:47:57.546Z,0
2016-08-11T02:48:57.562Z,0
2016-08-11T02:49:57.597Z,0
2016-08-11T02:50:57.575Z,0
2016-08-11T02:51:58.299Z,0
2016-08-11T02:52:57.616Z,0
2016-08-11T02:53:57.605Z,0
2016-08-11T02:54:57.642Z,0
2016-08-11T02:55:57.602Z,0
2016-08-11T02:56:57.630Z,0
2016-08-11T02:57:57.663Z,0
2016-08-11T02:58:57.640Z,0
2016-08-11T02:59:57.668Z,0
2016-08-11T03:00:57.662Z,0
2016-08-11T03:01:57.669Z,0
2016-08-11T03:02:57.676Z,0
2016-08-11T03:03:58.365Z,0
2016-08-11T03:04:57.670Z,0
2016-08-11T03:05:57.705Z,0
2016-08-11T03:06:57.692Z,0
2016-08-11T03:07:57.732Z,0
2016-08-11T03:08:57.710Z,0
2016-08-11T03:09:57.759Z,0
2016-08-11T03:10:57.732Z,0
2016-08-11T03:11:57.759Z,0
2016-08-11T03:12:57.740Z,0
2016-08-11T03:13:57.781Z,0
2016-08-11T03:14:57.758Z,0
2016-08-11T03:15:57.755Z,0
2016-08-11T03:16:57.794Z,0
2016-08-11T03:17:57.806Z,0
2016-08-11T03:18:57.808Z,0
2016-08-11T03:19:58.494Z,0
2016-08-11T03:20:57.814Z,0
2016-08-11T03:21:57.827Z,0
2016-08-11T03:22:57.860Z,0
2016-08-11T03:23:57.818Z,0
2016-08-11T03:24:57.839Z,0
2016-08-11T03:25:57.841Z,0
2016-08-11T03:26:57.864Z,0
2016-08-11T03:27:57.879Z,0
2016-08-11T03:28:57.915Z,0
2016-08-11T03:29:57.866Z,0
2016-08-11T03:30:57.912Z,0
2016-08-11T03:31:57.896Z,0
2016-08-11T03:32:57.895Z,0
2016-08-11T03:33:57.885Z,0
2016-08-11T03:34:57.925Z,0
2016-08-11T03:35:57.949Z,0
2016-08-11T03:36:57.928Z,0
2016-08-11T03:37:57.948Z,0
2016-08-11T03:38:57.934Z,0
2016-08-11T03:39:57.943Z,0
2016-08-11T03:40:57.981Z,0
2016-08-11T03:41:57.971Z,0
2016-08-11T03:42:58.006Z,0
2016-08-11T03:43:57.985Z,0
2016-08-11T03:44:57.985Z,0
2016-08-11T03:45:57.990Z,0
2016-08-11T03:46:58.030Z,0
2016-08-11T03:47:58.004Z,0
2016-08-11T03:48:58.046Z,0
2016-08-11T03:49:58.034Z,0
2016-08-11T03:50:58.037Z,0
2016-08-11T03:51:58.037Z,0
2016-08-11T03:52:58.051Z,0
2016-08-11T03:53:58.071Z,0
2016-08-11T03:54:58.080Z,0
2016-08-11T03:55:58.087Z,0
2016-08-11T03:56:58.077Z,0
2016-08-11T03:57:58.110Z,0
2016-08-11T03:58:58.118Z,0
2016-08-11T03:59:58.105Z,0
2016-08-11T04:00:58.127Z,0
2016-08-11T04:01:58.132Z,0
2016-08-11T04:02:58.131Z,0
2016-08-11T04:03:58.134Z,0
2016-08-11T04:04:58.134Z,0
2016-08-11T04:05:58.842Z,0
2016-08-11T04:06:58.184Z,0
2016-08-11T04:07:58.181Z,0
2016-08-11T04:08:58.201Z,0
2016-08-11T04:09:58.178Z,0
2016-08-11T04:10:58.202Z,0
2016-08-11T04:11:58.171Z,0
2016-08-11T04:12:58.203Z,0
2016-08-11T04:13:58.220Z,0
2016-08-11T04:14:58.219Z,0
2016-08-11T04:15:58.214Z,0
2016-08-11T04:16:58.249Z,0
2016-08-11T04:17:58.253Z,0
2016-08-11T04:18:58.262Z,0
2016-08-11T04:19:58.261Z,0
2016-08-11T04:20:58.983Z,0
2016-08-11T04:21:58.314Z,0
2016-08-11T04:22:58.285Z,0
2016-08-11T04:23:58.297Z,0
2016-08-11T04:24:58.292Z,0
2016-08-11T04:25:58.307Z,0
2016-08-11T04:26:58.318Z,0
2016-08-11T04:27:58.313Z,0
2016-08-11T04:29:58.342Z,0
2016-08-11T04:30:58.347Z,0
2016-08-11T04:31:58.331Z,0
2016-08-11T04:32:58.357Z,0
2016-08-11T04:33:58.346Z,0
2016-08-11T04:34:58.395Z,0
2016-08-11T04:35:58.403Z,0
2016-08-11T04:36:58.383Z,4
2016-08-11T04:37:58.388Z,4
2016-08-11T04:38:58.436Z,4
2016-08-11T04:39:58.387Z,4
2016-08-11T04:40:58.413Z,4
2016-08-11T04:41:58.420Z,4
2016-08-11T04:42:58.431Z,4
2016-08-11T04:43:58.475Z,4
2016-08-11T04:44:58.451Z,0
2016-08-11T04:45:58.457Z,0
2016-08-11T04:46:58.457Z,0
2016-08-11T04:47:58.482Z,0
2016-08-11T04:48:58.489Z,4
2016-08-11T04:49:58.474Z,4
2016-08-11T04:50:58.472Z,4
2016-08-11T04:51:58.522Z,4
2016-08-11T04:52:58.511Z,4
2016-08-11T04:53:58.535Z,4
2016-08-11T04:54:58.542Z,4
2016-08-11T04:55:58.536Z,4
2016-08-11T04:56:58.551Z,4
2016-08-11T04:57:58.558Z,4
2016-08-11T04:59:58.572Z,8
2016-08-11T05:00:58.593Z,8
2016-08-11T05:01:58.569Z,4
2016-08-11T05:02:58.574Z,4
2016-08-11T05:03:58.604Z,8
2016-08-11T05:04:58.608Z,8
2016-08-11T05:05:58.616Z,8
2016-08-11T05:06:58.616Z,8
2016-08-11T05:07:58.616Z,12
2016-08-11T05:08:58.630Z,8
2016-08-11T05:09:58.658Z,8
2016-08-11T05:10:58.649Z,8
2016-08-11T05:11:58.649Z,8
2016-08-11T05:12:58.670Z,8
2016-08-11T05:14:58.687Z,8
2016-08-11T05:15:58.701Z,8
2016-08-11T05:16:58.708Z,8
2016-08-11T05:17:58.713Z,8
2016-08-11T05:18:58.721Z,8
2016-08-11T05:19:58.723Z,8
2016-08-11T05:20:58.699Z,8
2016-08-11T05:21:58.741Z,8
2016-08-11T05:22:58.767Z,8
2016-08-11T05:23:58.744Z,8
2016-08-11T05:24:58.732Z,8
2016-08-11T05:25:58.773Z,8
2016-08-11T05:26:58.766Z,8
2016-08-11T05:27:58.789Z,8
2016-08-11T05:28:58.797Z,8
2016-08-11T05:29:58.803Z,8
2016-08-11T05:30:58.815Z,8
2016-08-11T05:31:58.788Z,8
2016-08-11T05:32:58.822Z,8
2016-08-11T05:33:58.851Z,8
2016-08-11T05:34:58.828Z,12
2016-08-11T05:35:59.539Z,12
2016-08-11T05:36:58.876Z,12
2016-08-11T05:37:58.855Z,12
2016-08-11T05:38:58.844Z,8
2016-08-11T05:39:58.880Z,8
2016-08-11T05:40:58.888Z,8
2016-08-11T05:41:58.877Z,8
2016-08-11T05:42:58.901Z,8
2016-08-11T05:43:58.911Z,8
2016-08-11T05:44:58.918Z,8
2016-08-11T05:45:58.925Z,8
2016-08-11T05:46:58.895Z,8
2016-08-11T05:47:58.956Z,8
2016-08-11T05:48:58.928Z,8
2016-08-11T05:49:58.969Z,4
2016-08-11T05:50:58.936Z,8
2016-08-11T05:51:58.963Z,8
2016-08-11T05:52:58.983Z,12
2016-08-11T05:53:58.967Z,16
2016-08-11T05:54:58.994Z,16
2016-08-11T05:55:59.692Z,16
2016-08-11T05:56:59.001Z,16
2016-08-11T05:57:58.997Z,16
2016-08-11T05:58:59.007Z,16
2016-08-11T05:59:59.021Z,16
2016-08-11T06:00:59.058Z,16
2016-08-11T06:01:59.029Z,16
2016-08-11T06:02:59.047Z,16
2016-08-11T06:03:59.060Z,16
2016-08-11T06:04:59.074Z,16
2016-08-11T06:05:59.099Z,16
2016-08-11T06:06:59.078Z,16
2016-08-11T06:07:59.093Z,16
2016-08-11T06:08:59.101Z,16
2016-08-11T06:09:59.088Z,16
2016-08-11T06:10:59.118Z,16
2016-08-11T06:11:59.098Z,16
2016-08-11T06:12:59.128Z,16
2016-08-11T06:13:59.132Z,16
2016-08-11T06:14:59.128Z,16
2016-08-11T06:15:59.157Z,16
2016-08-11T06:16:59.156Z,16
2016-08-11T06:17:59.158Z,16
2016-08-11T06:18:59.852Z,16
2016-08-11T06:19:59.163Z,16
2016-08-11T06:20:59.165Z,16
2016-08-11T06:21:59.190Z,16
2016-08-11T06:22:59.207Z,16
2016-08-11T06:23:59.196Z,16
2016-08-11T06:24:59.236Z,16
2016-08-11T06:25:59.228Z,16
2016-08-11T06:26:59.232Z,16
2016-08-11T06:27:59.225Z,16
2016-08-11T06:28:59.259Z,16
2016-08-11T06:29:59.257Z,16
2016-08-11T06:30:59.247Z,16
2016-08-11T06:31:59.256Z,16
2016-08-11T06:32:59.283Z,16
2016-08-11T06:33:59.288Z,16
2016-08-11T06:34:59.270Z,16
2016-08-11T06:35:59.279Z,16
2016-08-11T06:36:59.327Z,16
2016-08-11T06:37:59.333Z,16
2016-08-11T06:38:59.328Z,16
2016-08-11T06:39:59.339Z,16
2016-08-11T06:40:59.367Z,16
2016-08-11T06:41:59.367Z,16
2016-08-11T06:42:59.330Z,16
2016-08-11T06:43:59.375Z,16
2016-08-11T06:44:59.365Z,16
2016-08-11T06:45:59.378Z,16
2016-08-11T06:46:59.381Z,16
2016-08-11T06:47:59.402Z,16
2016-08-11T06:48:59.403Z,16
2016-08-11T06:49:59.393Z,16
2016-08-11T06:50:59.393Z,16
2016-08-11T06:51:59.426Z,16
2016-08-11T06:52:59.448Z,16
2016-08-11T06:54:00.139Z,16
2016-08-11T06:54:59.448Z,16
2016-08-11T06:55:59.455Z,16
2016-08-11T06:56:59.470Z,16
2016-08-11T06:57:59.467Z,16
2016-08-11T06:58:59.460Z,16
2016-08-11T06:59:59.458Z,16
2016-08-11T07:00:59.489Z,16
2016-08-11T07:01:59.487Z,16
2016-08-11T07:02:59.516Z,16
2016-08-11T07:03:59.505Z,16
2016-08-11T07:04:59.526Z,16
2016-08-11T07:05:59.519Z,16
2016-08-11T07:06:59.515Z,16
2016-08-11T07:07:59.518Z,16
2016-08-11T07:08:59.521Z,16
2016-08-11T07:09:59.568Z,16
2016-08-11T07:10:59.555Z,16
2016-08-11T07:11:59.553Z,16
2016-08-11T07:12:59.564Z,16
2016-08-11T07:13:59.568Z,16
2016-08-11T07:14:59.594Z,16
2016-08-11T07:15:59.583Z,16
2016-08-11T07:16:59.602Z,16
2016-08-11T07:17:59.627Z,16
2016-08-11T07:18:59.607Z,16
2016-08-11T07:19:59.617Z,16
2016-08-11T07:20:59.636Z,16
2016-08-11T07:21:59.645Z,16
2016-08-11T07:22:59.694Z,16
2016-08-11T07:23:59.674Z,8
2016-08-11T07:24:59.671Z,12
2016-08-11T07:25:59.680Z,16
2016-08-11T07:26:59.653Z,20
2016-08-11T07:28:00.384Z,16
2016-08-11T07:28:59.680Z,16
2016-08-11T07:29:59.701Z,16
2016-08-11T07:30:59.691Z,16
2016-08-11T07:31:59.706Z,16
2016-08-11T07:32:59.726Z,20
2016-08-11T07:33:59.720Z,20
2016-08-11T07:34:59.730Z,20
2016-08-11T07:35:59.740Z,20
2016-08-11T07:36:59.740Z,20
2016-08-11T07:37:59.742Z,20
2016-08-11T07:38:59.760Z,20
2016-08-11T07:39:59.759Z,20
2016-08-11T07:40:59.763Z,20
2016-08-11T07:41:59.796Z,20
2016-08-11T07:42:59.792Z,20
2016-08-11T07:43:59.782Z,20
2016-08-11T07:44:59.812Z,20
2016-08-11T07:45:59.820Z,20
2016-08-11T07:46:59.822Z,20
2016-08-11T07:47:59.835Z,20
2016-08-11T07:48:59.825Z,20
2016-08-11T07:49:59.853Z,24
2016-08-11T07:50:59.868Z,24
2016-08-11T07:52:00.033Z,24
2016-08-11T07:52:59.872Z,20
2016-08-11T07:53:59.885Z,20
2016-08-11T07:54:59.868Z,20
2016-08-11T07:55:59.913Z,20
2016-08-11T07:56:59.887Z,24
2016-08-11T07:57:59.899Z,24
2016-08-11T07:58:59.920Z,24
2016-08-11T07:59:59.962Z,24
2016-08-11T08:00:59.933Z,24
2016-08-11T08:01:59.936Z,16
2016-08-11T08:03:00.604Z,24
2016-08-11T08:03:59.937Z,28
2016-08-11T08:04:59.977Z,28
2016-08-11T08:05:59.959Z,28
2016-08-11T08:06:59.978Z,28
2016-08-11T08:07:59.954Z,28
2016-08-11T08:09:00.007Z,24
2016-08-11T08:09:59.987Z,28
2016-08-11T08:10:59.982Z,28
2016-08-11T08:12:00.002Z,28
2016-08-11T08:13:00.043Z,28
2016-08-11T08:14:00.023Z,28
2016-08-11T08:15:00.013Z,24
2016-08-11T08:16:00.055Z,28
2016-08-11T08:17:00.076Z,28
2016-08-11T08:18:00.070Z,24
2016-08-11T08:19:00.039Z,24
2016-08-11T08:20:00.789Z,24
2016-08-11T08:21:00.086Z,12
2016-08-11T08:22:00.082Z,24
2016-08-11T08:23:00.175Z,24
2016-08-11T08:24:00.108Z,28
2016-08-11T08:25:00.115Z,28
2016-08-11T08:26:00.114Z,28
2016-08-11T08:27:00.125Z,28
2016-08-11T08:28:00.117Z,32
2016-08-11T08:29:00.145Z,32
2016-08-11T08:30:00.138Z,28
2016-08-11T08:31:00.151Z,28
2016-08-11T08:32:00.148Z,28
2016-08-11T08:33:00.166Z,28
2016-08-11T08:34:00.154Z,28
2016-08-11T08:35:00.180Z,28
2016-08-11T08:36:00.198Z,32
2016-08-11T08:37:00.403Z,32
2016-08-11T08:38:00.222Z,12
2016-08-11T08:39:00.228Z,12
2016-08-11T08:40:00.249Z,12
2016-08-11T08:41:00.231Z,12
2016-08-11T08:42:00.236Z,12
2016-08-11T08:43:00.272Z,12
2016-08-11T08:44:00.268Z,12
2016-08-11T08:45:00.271Z,32
2016-08-11T08:46:00.291Z,32
2016-08-11T08:47:00.289Z,32
2016-08-11T08:48:00.261Z,28
2016-08-11T08:49:00.300Z,32
2016-08-11T08:50:00.314Z,32
2016-08-11T08:51:00.306Z,32
2016-08-11T08:52:00.313Z,24
2016-08-11T08:53:00.348Z,28
2016-08-11T08:54:00.330Z,32
2016-08-11T08:55:00.334Z,32
2016-08-11T08:56:00.362Z,32
2016-08-11T08:57:00.351Z,32
2016-08-11T08:58:00.374Z,32
2016-08-11T08:59:00.387Z,36
2016-08-11T09:00:00.381Z,32
2016-08-11T09:01:00.404Z,16
2016-08-11T09:02:00.415Z,28
2016-08-11T09:03:00.429Z,32
2016-08-11T09:04:00.438Z,28
2016-08-11T09:05:00.452Z,36
2016-08-11T09:06:00.418Z,36
2016-08-11T09:07:00.454Z,36
2016-08-11T09:08:00.440Z,32
2016-08-11T09:09:00.456Z,32
2016-08-11T09:10:00.482Z,32
2016-08-11T09:11:00.469Z,20
2016-08-11T09:12:00.491Z,16
2016-08-11T09:13:00.504Z,36
2016-08-11T09:14:00.509Z,36
2016-08-11T09:15:00.495Z,36
2016-08-11T09:16:00.497Z,36
2016-08-11T09:17:00.505Z,40
2016-08-11T09:18:00.530Z,40
2016-08-11T09:19:00.528Z,40
2016-08-11T09:20:00.525Z,44
2016-08-11T09:21:00.543Z,44
2016-08-11T09:22:00.573Z,44
2016-08-11T09:23:00.620Z,44
2016-08-11T09:24:00.608Z,44
2016-08-11T09:25:00.594Z,44
2016-08-11T09:26:00.582Z,44
2016-08-11T09:27:00.617Z,44
2016-08-11T09:28:00.594Z,44
2016-08-11T09:29:00.643Z,44
2016-08-11T09:31:13.470Z,40
2016-08-11T09:32:13.490Z,40
2016-08-11T09:33:13.495Z,24
2016-08-11T09:34:13.488Z,44
2016-08-11T09:35:13.508Z,44
2016-08-11T09:36:13.511Z,48
2016-08-11T09:37:13.504Z,44
2016-08-11T09:38:13.539Z,48
2016-08-11T09:39:13.579Z,48
2016-08-11T09:40:13.552Z,44
2016-08-11T09:41:13.569Z,40
2016-08-11T09:42:13.583Z,44
2016-08-11T09:43:13.624Z,40
2016-08-11T09:44:13.566Z,20
2016-08-11T09:45:13.589Z,20
2016-08-11T09:46:13.565Z,44
2016-08-11T09:47:13.586Z,44
2016-08-11T09:48:13.598Z,44
2016-08-11T09:49:13.619Z,44
2016-08-11T09:50:13.629Z,44
2016-08-11T09:51:13.606Z,24
2016-08-11T09:52:13.655Z,24
2016-08-11T09:53:13.678Z,20
2016-08-11T09:54:13.652Z,20
2016-08-11T09:55:13.667Z,24
2016-08-11T09:56:13.678Z,24
2016-08-11T09:57:13.671Z,32
2016-08-11T09:58:13.711Z,48
2016-08-11T09:59:13.683Z,48
2016-08-11T10:00:13.697Z,48
2016-08-11T10:01:13.716Z,52
2016-08-11T10:02:13.723Z,48
2016-08-11T10:03:13.697Z,44
2016-08-11T10:04:13.727Z,48
2016-08-11T10:05:13.739Z,48
2016-08-11T10:06:13.727Z,48
2016-08-11T10:07:13.757Z,24
2016-08-11T10:08:13.752Z,28
2016-08-11T10:09:13.785Z,48
2016-08-11T10:10:13.814Z,48
2016-08-11T10:11:13.805Z,52
2016-08-11T10:12:13.767Z,52
2016-08-11T10:13:13.805Z,56
2016-08-11T10:14:13.800Z,52
2016-08-11T10:15:13.808Z,52
2016-08-11T10:16:13.824Z,52
2016-08-11T10:17:13.846Z,60
2016-08-11T10:18:13.831Z,60
2016-08-11T10:19:13.845Z,60
2016-08-11T10:20:13.845Z,28
2016-08-11T10:21:13.853Z,28
2016-08-11T10:22:13.878Z,32
2016-08-11T10:23:13.947Z,48
2016-08-11T10:24:13.901Z,56
2016-08-11T10:25:13.919Z,56
2016-08-11T10:26:13.918Z,56
2016-08-11T10:27:13.919Z,52
2016-08-11T10:28:13.929Z,56
2016-08-11T10:29:13.931Z,28
2016-08-11T10:30:13.923Z,24
2016-08-11T10:31:13.926Z,28
2016-08-11T10:32:13.933Z,28
2016-08-11T10:33:13.945Z,28
2016-08-11T10:34:13.964Z,40
2016-08-11T10:35:13.976Z,48
2016-08-11T10:36:14.027Z,32
2016-08-11T10:37:14.013Z,40
2016-08-11T10:38:13.997Z,36
2016-08-11T10:39:14.000Z,64
2016-08-11T10:40:14.029Z,40
2016-08-11T10:41:14.012Z,64
2016-08-11T10:42:14.012Z,60
2016-08-11T10:43:14.043Z,32
2016-08-11T10:44:14.026Z,36
2016-08-11T10:45:14.073Z,28
2016-08-11T10:46:14.096Z,32
2016-08-11T10:47:14.060Z,32
2016-08-11T10:48:14.091Z,60
2016-08-11T10:49:14.055Z,56
2016-08-11T10:50:14.068Z,56
2016-08-11T10:51:14.067Z,52
2016-08-11T10:52:14.083Z,56
2016-08-11T10:53:14.110Z,48
2016-08-11T10:54:14.113Z,44
2016-08-11T10:55:14.149Z,48
2016-08-11T10:56:14.106Z,24
2016-08-11T10:57:14.166Z,52
2016-08-11T10:58:14.119Z,52
2016-08-11T10:59:14.156Z,52
2016-08-11T11:00:14.127Z,52
2016-08-11T11:01:14.165Z,56
2016-08-11T11:02:14.197Z,56
2016-08-11T11:03:14.202Z,52
2016-08-11T11:04:14.163Z,52
2016-08-11T11:05:14.214Z,52
2016-08-11T11:06:14.192Z,52
2016-08-11T11:07:14.220Z,52
2016-08-11T11:08:14.207Z,52
2016-08-11T11:09:14.226Z,52
2016-08-11T11:10:14.253Z,52
2016-08-11T11:11:14.235Z,52
2016-08-11T11:12:14.235Z,52
2016-08-11T11:13:14.244Z,52
2016-08-11T11:14:14.261Z,56
2016-08-11T11:15:14.271Z,56
2016-08-11T11:16:14.256Z,56
2016-08-11T11:17:14.285Z,56
2016-08-11T11:18:14.277Z,44
2016-08-11T11:19:14.292Z,52
2016-08-11T11:20:14.311Z,32
2016-08-11T11:21:14.317Z,28
2016-08-11T11:22:14.346Z,36
2016-08-11T11:23:14.371Z,60
2016-08-11T11:24:14.335Z,64
2016-08-11T11:25:14.343Z,64
2016-08-11T11:26:14.360Z,64
2016-08-11T11:27:14.351Z,60
2016-08-11T11:28:14.375Z,60
2016-08-11T11:29:14.374Z,56
2016-08-11T11:30:14.383Z,56
2016-08-11T11:31:14.407Z,24
2016-08-11T11:32:14.426Z,24
2016-08-11T11:33:14.394Z,44
2016-08-11T11:34:14.420Z,24
2016-08-11T11:35:14.460Z,24
2016-08-11T11:36:14.463Z,56
2016-08-11T11:37:14.443Z,40
2016-08-11T11:38:14.440Z,28
2016-08-11T11:39:14.458Z,60
2016-08-11T11:40:14.464Z,60
2016-08-11T11:41:14.483Z,64
2016-08-11T11:42:14.492Z,64
2016-08-11T11:43:14.474Z,68
2016-08-11T11:44:14.491Z,72
2016-08-11T11:45:14.509Z,68
2016-08-11T11:46:14.529Z,72
2016-08-11T11:47:14.531Z,76
2016-08-11T11:48:14.501Z,56
2016-08-11T11:49:14.542Z,52
2016-08-11T11:50:14.516Z,64
2016-08-11T11:51:14.533Z,56
2016-08-11T11:52:14.533Z,48
2016-08-11T11:53:14.568Z,36
2016-08-11T11:54:14.614Z,36
2016-08-11T11:55:14.579Z,32
2016-08-11T11:56:14.582Z,60
2016-08-11T11:57:14.598Z,60
2016-08-11T11:58:14.599Z,60
2016-08-11T11:59:14.626Z,52
2016-08-11T12:00:14.618Z,56
2016-08-11T12:01:14.653Z,56
2016-08-11T12:02:14.649Z,56
2016-08-11T12:03:14.660Z,56
2016-08-11T12:04:14.658Z,56
2016-08-11T12:05:14.680Z,56
2016-08-11T12:06:14.652Z,56
2016-08-11T12:07:14.656Z,56
2016-08-11T12:08:14.685Z,60
2016-08-11T12:09:14.685Z,56
2016-08-11T12:10:14.698Z,60
2016-08-11T12:11:14.695Z,60
2016-08-11T12:12:14.736Z,64
2016-08-11T12:13:14.740Z,64
2016-08-11T12:14:14.756Z,60
2016-08-11T12:16:14.735Z,64
2016-08-11T12:17:14.757Z,68
2016-08-11T12:18:14.770Z,64
2016-08-11T12:19:14.795Z,64
2016-08-11T12:20:14.789Z,60
2016-08-11T12:21:14.804Z,60
2016-08-11T12:22:14.800Z,60
2016-08-11T12:23:14.930Z,60
2016-08-11T12:24:14.790Z,64
2016-08-11T12:25:14.844Z,64
2016-08-11T12:26:14.833Z,64
2016-08-11T12:27:14.850Z,40
2016-08-11T12:28:14.837Z,36
2016-08-11T12:29:14.856Z,60
2016-08-11T12:30:14.886Z,60
2016-08-11T12:31:14.893Z,60
2016-08-11T12:32:14.874Z,56
2016-08-11T12:33:14.890Z,60
2016-08-11T12:34:14.917Z,60
2016-08-11T12:35:14.901Z,28
2016-08-11T12:36:14.891Z,24
2016-08-11T12:37:14.930Z,28
2016-08-11T12:38:14.941Z,28
2016-08-11T12:39:14.941Z,52
2016-08-11T12:40:14.946Z,52
2016-08-11T12:41:14.967Z,56
2016-08-11T12:42:14.957Z,52
2016-08-11T12:43:14.986Z,56
2016-08-11T12:44:14.976Z,60
2016-08-11T12:46:14.982Z,48
2016-08-11T12:47:15.690Z,36
2016-08-11T12:48:15.014Z,32
2016-08-11T12:49:15.006Z,32
2016-08-11T12:50:15.717Z,24
2016-08-11T12:51:15.042Z,24
2016-08-11T12:52:15.066Z,28
2016-08-11T12:53:15.054Z,32
2016-08-11T12:54:15.737Z,36
2016-08-11T12:55:15.068Z,32
2016-08-11T12:56:15.086Z,32
2016-08-11T12:57:15.105Z,28
2016-08-11T12:58:15.078Z,24
2016-08-11T12:59:15.108Z,24
2016-08-11T13:00:15.090Z,20
2016-08-11T13:01:15.103Z,20
2016-08-11T13:02:15.145Z,16
2016-08-11T13:03:15.147Z,20
2016-08-11T13:04:15.165Z,20
2016-08-11T13:05:15.142Z,20
2016-08-11T13:06:15.832Z,20
2016-08-11T13:07:15.186Z,16
2016-08-11T13:08:15.187Z,16
2016-08-11T13:09:15.209Z,16
2016-08-11T13:10:15.189Z,16
2016-08-11T13:11:15.214Z,16
2016-08-11T13:12:15.219Z,16
2016-08-11T13:13:15.210Z,20
2016-08-11T13:14:15.207Z,16
2016-08-11T13:15:15.252Z,20
2016-08-11T13:16:15.234Z,24
2016-08-11T13:17:15.237Z,24
2016-08-11T13:18:15.242Z,28
2016-08-11T13:19:15.254Z,28
2016-08-11T13:20:15.266Z,36
2016-08-11T13:21:15.257Z,56
2016-08-11T13:22:15.286Z,56
2016-08-11T13:23:15.342Z,56
2016-08-11T13:24:15.297Z,56
2016-08-11T13:25:15.306Z,52
2016-08-11T13:26:15.303Z,56
2016-08-11T13:27:15.313Z,52
2016-08-11T13:28:15.354Z,48
2016-08-11T13:29:15.337Z,52
2016-08-11T13:30:15.359Z,28
2016-08-11T13:31:15.391Z,28
2016-08-11T13:32:15.353Z,40
2016-08-11T13:33:15.380Z,52
2016-08-11T13:34:15.413Z,48
2016-08-11T13:35:15.408Z,52
2016-08-11T13:36:15.412Z,52
2016-08-11T13:37:16.090Z,52
2016-08-11T13:38:15.441Z,52
2016-08-11T13:39:15.473Z,52
2016-08-11T13:40:15.450Z,32
2016-08-11T13:41:15.479Z,32
2016-08-11T13:42:15.466Z,28
2016-08-11T13:43:15.481Z,24
2016-08-11T13:44:15.469Z,28
2016-08-11T13:45:15.500Z,24
2016-08-11T13:46:15.490Z,24
2016-08-11T13:47:15.516Z,24
2016-08-11T13:48:15.520Z,24
2016-08-11T13:49:15.542Z,28
2016-08-11T13:50:15.530Z,28
2016-08-11T13:51:15.533Z,24
2016-08-11T13:52:15.578Z,32
2016-08-11T13:53:15.551Z,32
2016-08-11T13:54:15.560Z,32
2016-08-11T13:55:15.552Z,36
2016-08-11T13:56:15.578Z,52
2016-08-11T13:57:15.593Z,52
2016-08-11T13:58:15.596Z,52
2016-08-11T13:59:15.622Z,52
2016-08-11T14:00:15.597Z,52
2016-08-11T14:01:15.634Z,48
2016-08-11T14:02:15.653Z,48
2016-08-11T14:03:15.655Z,48
2016-08-11T14:04:17.027Z,44
2016-08-11T14:05:15.677Z,44
2016-08-11T14:06:15.670Z,44
2016-08-11T14:07:15.680Z,40
2016-08-11T14:08:15.703Z,44
2016-08-11T14:09:15.699Z,40
2016-08-11T14:10:15.712Z,44
2016-08-11T14:11:15.748Z,40
2016-08-11T14:12:15.721Z,40
2016-08-11T14:13:15.752Z,44
2016-08-11T14:14:15.739Z,44
2016-08-11T14:15:15.745Z,44
2016-08-11T14:16:15.757Z,40
2016-08-11T14:17:15.774Z,40
2016-08-11T14:18:15.774Z,40
2016-08-11T14:19:15.796Z,40
2016-08-11T14:20:15.803Z,44
2016-08-11T14:21:15.833Z,40
2016-08-11T14:22:15.806Z,40
2016-08-11T14:23:15.893Z,40
2016-08-11T14:24:15.853Z,40
2016-08-11T14:25:15.843Z,40
2016-08-11T14:26:15.895Z,20
2016-08-11T14:27:15.849Z,20
2016-08-11T14:28:15.872Z,40
2016-08-11T14:29:15.908Z,40
2016-08-11T14:30:15.867Z,40
2016-08-11T14:31:15.904Z,36
2016-08-11T14:32:16.604Z,40
2016-08-11T14:33:15.935Z,40
2016-08-11T14:34:15.948Z,40